Time;durP1;ratioP1;P1;durP2;ratioP2;P2;SDS_P1;SDS_P2;PMS_P1;PMS_P2;Temp;Humidity;BMP_temperature;BMP_pressure;BME280_temperature;BME280_humidity;BME280_pressure;Samples;Min_cycle;Max_cycle;Signal;HPM_P1;HPM_P2
2023/10/29 00:00:47;;;;;;;;;0.00;0.00;;;;;17.23;100.00;98669.34;2062886;28;46722;-58
2023/10/29 00:01:48;;;;;;;;;0.00;0.00;;;;;17.22;100.00;98681.06;2062042;28;46914;-58
2023/10/29 00:02:48;;;;;;;;;0.00;0.00;;;;;17.22;100.00;98683.72;2062068;28;46376;-58
2023/10/29 00:03:48;;;;;;;;;0.00;0.00;;;;;17.22;100.00;98690.91;2062569;28;46241;-56
2023/10/29 00:04:49;;;;;;;;;0.00;0.00;;;;;17.20;100.00;98690.19;2062718;28;46281;-58
2023/10/29 00:05:49;;;;;;;;;0.67;0.00;;;;;17.22;100.00;98681.06;2062716;28;46282;-59
2023/10/29 00:06:49;;;;;;;;;0.00;0.00;;;;;17.23;100.00;98680.06;2062845;28;46324;-57
2023/10/29 00:07:50;;;;;;;;;0.00;0.00;;;;;17.25;100.00;98680.78;2062955;28;46342;-58
2023/10/29 00:08:50;;;;;;;;;0.00;0.00;;;;;17.26;100.00;98678.97;2062592;28;46624;-57
2023/10/29 00:09:50;;;;;;;;;1.00;1.00;;;;;17.25;100.00;98682.63;2095731;28;45544;-56
2023/10/29 00:10:51;;;;;;;;;0.00;0.00;;;;;17.25;100.00;98683.47;2095960;28;46569;-61
2023/10/29 00:11:51;;;;;;;;;0.00;0.00;;;;;17.24;100.00;98678.25;2095834;28;46346;-62
2023/10/29 00:12:51;;;;;;;;;0.00;0.00;;;;;17.24;100.00;98662.16;2095930;28;46237;-55
2023/10/29 00:13:51;;;;;;;;;1.00;1.00;;;;;17.23;100.00;98671.19;2092616;28;46706;-59
2023/10/29 00:14:52;;;;;;;;;0.00;0.00;;;;;17.21;100.00;98675.81;2087241;28;46215;-60
2023/10/29 00:15:52;;;;;;;;;1.00;0.00;;;;;17.24;100.00;98667.53;2087548;28;46362;-60
2023/10/29 00:16:52;;;;;;;;;0.00;0.00;;;;;17.23;100.00;98661.31;2087627;28;46426;-62
2023/10/29 00:17:53;;;;;;;;;1.00;0.00;;;;;17.22;100.00;98659.59;2087668;28;46237;-59
2023/10/29 00:18:53;;;;;;;;;0.00;0.00;;;;;17.24;100.00;98644.25;2095428;28;46556;-60
2023/10/29 00:19:54;;;;;;;;;0.00;0.00;;;;;17.24;100.00;98643.38;2096172;28;46755;-56
2023/10/29 00:20:54;;;;;;;;;0.00;0.00;;;;;17.26;100.00;98644.97;2087483;28;46462;-57
2023/10/29 00:21:55;;;;;;;;;1.33;0.00;;;;;17.27;100.00;98649.34;2095788;28;46428;-57
2023/10/29 00:22:55;;;;;;;;;0.00;0.00;;;;;17.26;100.00;98638.75;2096001;28;46353;-59
2023/10/29 00:23:55;;;;;;;;;0.00;0.00;;;;;17.27;100.00;98656.53;2087421;28;46688;-58
2023/10/29 00:24:56;;;;;;;;;0.00;0.00;;;;;17.27;100.00;98657.38;2087477;28;46488;-59
2023/10/29 00:25:56;;;;;;;;;0.00;0.00;;;;;17.27;100.00;98656.53;2087800;28;46255;-59
2023/10/29 00:26:56;;;;;;;;;0.00;0.00;;;;;17.27;100.00;98662.75;2087407;28;46253;-60
2023/10/29 00:27:56;;;;;;;;;0.00;0.00;;;;;17.29;100.00;98657.28;2086975;28;46269;-57
2023/10/29 00:28:57;;;;;;;;;0.00;0.00;;;;;17.30;100.00;98649.13;2087416;28;45739;-58
2023/10/29 00:29:57;;;;;;;;;1.00;1.00;;;;;17.31;100.00;98658.00;2089810;28;46914;-58
2023/10/29 00:30:58;;;;;;;;;0.00;0.00;;;;;17.31;100.00;98658.00;2095790;28;46232;-59
2023/10/29 00:31:58;;;;;;;;;1.00;1.00;;;;;17.31;100.00;98666.91;2085859;28;46503;-59
2023/10/29 00:32:59;;;;;;;;;1.00;0.00;;;;;17.34;100.00;98669.31;2087172;28;46462;-59
2023/10/29 00:33:59;;;;;;;;;0.33;0.33;;;;;17.36;100.00;98664.69;2095538;28;46900;-58
2023/10/29 00:34:59;;;;;;;;;0.00;0.00;;;;;17.39;100.00;98668.09;2095547;28;46260;-58
2023/10/29 00:36:00;;;;;;;;;0.00;0.00;;;;;17.39;100.00;98660.88;2095804;28;45730;-60
2023/10/29 00:37:00;;;;;;;;;0.00;0.00;;;;;17.39;100.00;98647.50;2095894;28;46500;-62
2023/10/29 00:38:00;;;;;;;;;1.00;1.00;;;;;17.40;100.00;98651.88;2093363;28;44999;-55
2023/10/29 00:39:01;;;;;;;;;0.00;0.00;;;;;17.39;100.00;98649.31;2088700;28;46029;-58
2023/10/29 00:40:02;;;;;;;;;0.00;0.00;;;;;17.40;100.00;98641.16;2086976;28;46260;-59
2023/10/29 00:41:02;;;;;;;;;0.00;0.00;;;;;17.38;100.00;98642.25;2087425;28;46422;-58
2023/10/29 00:42:03;;;;;;;;;0.00;0.00;;;;;17.36;100.00;98653.97;2062267;28;45093;-58
2023/10/29 00:43:03;;;;;;;;;0.00;0.00;;;;;17.37;100.00;98657.50;2062826;28;45044;-55
2023/10/29 00:44:04;;;;;;;;;1.00;1.00;;;;;17.39;100.00;98654.69;2062649;28;46284;-59
2023/10/29 00:45:05;;;;;;;;;1.00;0.33;;;;;17.37;100.00;98652.13;2056740;28;46604;-60
2023/10/29 00:46:05;;;;;;;;;0.33;0.33;;;;;17.38;100.00;98634.22;2054221;28;46351;-61
2023/10/29 00:47:06;;;;;;;;;1.00;1.00;;;;;17.37;100.00;98638.72;2062438;28;45747;-57
2023/10/29 00:48:10;;;;;;;;;0.00;0.00;;;;;17.38;100.00;98634.22;2062200;28;45209;-60
2023/10/29 00:49:10;;;;;;;;;0.25;0.00;;;;;17.29;100.00;98636.69;2061855;28;46240;-62
2023/10/29 00:50:11;;;;;;;;;0.33;0.33;;;;;17.27;100.00;98643.97;2055141;28;46512;-56
2023/10/29 00:51:12;;;;;;;;;0.67;0.67;;;;;17.26;100.00;98623.53;2053325;28;46589;-58
2023/10/29 00:52:13;;;;;;;;;0.75;0.75;;;;;17.33;100.00;98622.03;2053283;28;46383;-58
2023/10/29 00:53:14;;;;;;;;;0.00;0.00;;;;;17.35;100.00;98606.69;2057964;28;46978;-55
2023/10/29 00:54:14;;;;;;;;;0.00;0.00;;;;;17.38;100.00;98608.25;2062152;28;46606;-58
2023/10/29 00:55:16;;;;;;;;;0.00;0.00;;;;;17.41;100.00;98615.22;2062445;28;46241;-59
2023/10/29 00:56:18;;;;;;;;;0.50;0.50;;;;;17.41;100.00;98625.94;2061536;28;46165;-58
2023/10/29 00:57:19;;;;;;;;;0.75;0.75;;;;;17.41;100.00;98626.78;2054214;28;46054;-60
2023/10/29 00:58:20;;;;;;;;;0.67;0.67;;;;;17.41;100.00;98623.25;2061536;28;46640;-57
2023/10/29 00:59:21;;;;;;;;;0.25;0.25;;;;;17.43;100.00;98626.66;2059026;28;46052;-58
2023/10/29 01:00:23;;;;;;;;;0.25;0.25;;;;;17.43;100.00;98626.66;2062349;28;46422;-51
2023/10/29 01:01:24;;;;;;;;;0.00;0.00;;;;;17.42;100.00;98635.69;2062318;28;46428;-58
2023/10/29 01:02:24;;;;;;;;;3.33;2.00;;;;;17.41;100.00;98623.25;2062220;28;46027;-52
2023/10/29 01:03:25;;;;;;;;;0.00;0.00;;;;;17.41;100.00;98637.50;2062228;28;46477;-59
2023/10/29 01:04:25;;;;;;;;;0.00;0.00;;;;;17.40;100.00;98630.41;2061202;28;46780;-60
2023/10/29 01:05:26;;;;;;;;;0.00;0.00;;;;;17.40;100.00;98630.41;2061937;28;46568;-59
2023/10/29 01:06:26;;;;;;;;;0.00;0.00;;;;;17.42;100.00;98641.03;2062346;28;45545;-58
2023/10/29 01:07:26;;;;;;;;;0.67;0.00;;;;;17.41;100.00;98632.16;2062381;28;46716;-58
2023/10/29 01:08:27;;;;;;;;;1.00;1.00;;;;;17.42;100.00;98636.53;2062263;28;46835;-55
2023/10/29 01:09:29;;;;;;;;;1.00;1.00;;;;;17.45;100.00;98652.34;2062184;28;46498;-58
2023/10/29 01:10:29;;;;;;;;;0.00;0.00;;;;;17.45;100.00;98643.47;2060112;28;46737;-57
2023/10/29 01:11:29;;;;;;;;;1.33;1.33;;;;;17.41;100.00;98640.19;2054417;28;46670;-55
2023/10/29 01:12:30;;;;;;;;;0.00;0.00;;;;;17.45;100.00;98640.78;2059446;28;45773;-57
2023/10/29 01:13:30;;;;;;;;;0.67;0.67;;;;;17.46;100.00;98635.28;2062023;28;46541;-55
2023/10/29 01:14:30;;;;;;;;;0.00;0.00;;;;;17.50;100.00;98646.59;2062679;28;46605;-57
2023/10/29 01:15:32;;;;;;;;;2.00;2.00;;;;;17.49;100.00;98653.81;2061811;28;46769;-60
2023/10/29 01:16:33;;;;;;;;;0.25;0.25;;;;;17.52;100.00;98675.00;2061191;28;46415;-60
2023/10/29 01:17:33;;;;;;;;;0.00;0.00;;;;;17.53;100.00;98678.53;2060221;28;46432;-59
2023/10/29 01:18:34;;;;;;;;;1.00;1.00;;;;;17.52;100.00;98672.31;2077687;28;46041;-56
2023/10/29 01:19:34;;;;;;;;;0.67;0.00;;;;;17.51;100.00;98664.41;2078379;28;46390;-59
2023/10/29 01:20:34;;;;;;;;;0.33;0.33;;;;;17.53;100.00;98666.00;2054421;28;46264;-55
2023/10/29 01:21:35;;;;;;;;;1.33;1.00;;;;;17.56;100.00;98654.16;2054107;28;46437;-59
2023/10/29 01:22:35;;;;;;;;;0.67;0.00;;;;;17.56;100.00;98657.69;2054150;28;45569;-57
2023/10/29 01:23:36;;;;;;;;;0.00;0.00;;;;;17.57;100.00;98670.13;2054002;28;46621;-59
2023/10/29 01:24:38;;;;;;;;;0.00;0.00;;;;;17.56;100.00;98671.09;2054208;28;45783;-54
2023/10/29 01:25:38;;;;;;;;;2.00;1.00;;;;;17.59;100.00;98661.94;2053990;28;46493;-59
2023/10/29 01:26:39;;;;;;;;;0.00;0.00;;;;;17.57;100.00;98648.66;2054322;28;46866;-58
2023/10/29 01:27:39;;;;;;;;;0.00;0.00;;;;;17.59;100.00;98667.31;2053556;28;46200;-59
2023/10/29 01:28:39;;;;;;;;;0.00;0.00;;;;;17.58;100.00;98658.41;2054050;28;46259;-56
2023/10/29 01:29:40;;;;;;;;;1.67;1.00;;;;;17.60;100.00;98672.53;2054056;28;46316;-57
2023/10/29 01:30:40;;;;;;;;;1.00;0.00;;;;;17.61;100.00;98662.66;2053792;28;46714;-59
2023/10/29 01:31:40;;;;;;;;;0.00;0.00;;;;;17.61;100.00;98671.56;2053267;28;46460;-56
2023/10/29 01:32:41;;;;;;;;;1.00;1.00;;;;;17.63;100.00;98668.75;2061929;28;46357;-58
2023/10/29 01:33:41;;;;;;;;;0.33;0.33;;;;;17.64;100.00;98682.03;2061376;28;46464;-53
2023/10/29 01:34:42;;;;;;;;;0.00;0.00;;;;;17.66;100.00;98673.88;2061294;28;46214;-58
2023/10/29 01:35:42;;;;;;;;;0.00;0.00;;;;;17.67;100.00;98666.69;2061984;28;46250;-59
2023/10/29 01:36:42;;;;;;;;;0.00;0.00;;;;;17.67;100.00;98672.91;2062339;28;46682;-57
2023/10/29 01:37:43;;;;;;;;;0.00;0.00;;;;;17.67;100.00;98680.94;2062142;28;46284;-59
2023/10/29 01:38:43;;;;;;;;;1.00;1.00;;;;;17.67;100.00;98678.25;2061915;28;46558;-58
2023/10/29 01:39:43;;;;;;;;;1.00;1.00;;;;;17.69;100.00;98679.00;2062852;28;46020;-56
2023/10/29 01:40:44;;;;;;;;;0.67;0.00;;;;;17.72;100.00;98680.59;2063637;28;46640;-58
2023/10/29 01:41:44;;;;;;;;;0.00;0.00;;;;;17.74;100.00;98692.88;2063545;28;46632;-58
2023/10/29 01:42:45;;;;;;;;;1.00;0.00;;;;;17.75;100.00;98674.94;2063284;28;46607;-54
2023/10/29 01:43:46;;;;;;;;;0.00;0.00;;;;;17.75;100.00;98683.00;2063399;28;46396;-59
2023/10/29 01:44:46;;;;;;;;;0.00;0.00;;;;;17.73;100.00;98687.66;2063002;28;46211;-58
2023/10/29 01:45:46;;;;;;;;;0.33;0.00;;;;;17.73;100.00;98680.44;2064421;28;45899;-58
2023/10/29 01:46:47;;;;;;;;;0.00;0.00;;;;;17.73;100.00;98693.00;2062584;28;45274;-56
2023/10/29 01:47:47;;;;;;;;;0.00;0.00;;;;;17.73;100.00;98674.22;2062917;28;45982;-57
2023/10/29 01:48:47;;;;;;;;;2.00;1.00;;;;;17.72;100.00;98677.91;2096273;28;46735;-54
2023/10/29 01:49:48;;;;;;;;;0.33;0.33;;;;;17.74;100.00;98689.34;2096650;28;46520;-55
2023/10/29 01:50:50;;;;;;;;;0.67;0.00;;;;;17.73;100.00;98685.81;2096300;28;47102;-58
2023/10/29 01:51:50;;;;;;;;;1.00;1.00;;;;;17.75;100.00;98681.16;2087605;28;46360;-59
2023/10/29 01:52:53;;;;;;;;;1.00;1.00;;;;;17.76;100.00;98685.56;2079869;28;46448;-56
2023/10/29 01:53:54;;;;;;;;;0.00;0.00;;;;;17.77;100.00;98694.44;2088912;28;46674;-57
2023/10/29 01:54:54;;;;;;;;;0.00;0.00;;;;;17.76;100.00;98698.97;2096208;28;47023;-56
2023/10/29 01:55:54;;;;;;;;;0.67;0.67;;;;;17.76;100.00;98690.06;2096803;28;46299;-59
2023/10/29 01:56:55;;;;;;;;;0.00;0.00;;;;;17.79;100.00;98697.88;2096724;28;46730;-59
2023/10/29 01:57:55;;;;;;;;;0.00;0.00;;;;;17.80;100.00;98710.31;2096802;28;45894;-60
2023/10/29 01:58:55;;;;;;;;;0.00;0.00;;;;;17.81;100.00;98707.50;2089387;28;45552;-56
2023/10/29 01:59:56;;;;;;;;;0.00;0.00;;;;;17.81;100.00;98707.50;2096837;28;46739;-58
2023/10/29 02:00:56;;;;;;;;;0.00;0.00;;;;;17.82;100.00;98698.47;2096716;28;46363;-56
2023/10/29 02:01:56;;;;;;;;;1.00;1.00;;;;;17.83;100.00;98710.06;2096994;28;46869;-55
2023/10/29 02:02:57;;;;;;;;;0.00;0.00;;;;;17.82;100.00;98695.78;2090027;28;46390;-59
2023/10/29 02:03:57;;;;;;;;;0.00;0.00;;;;;17.83;100.00;98710.06;2088074;28;47386;-60
2023/10/29 02:04:58;;;;;;;;;0.00;0.00;;;;;17.84;100.00;98717.13;2093619;28;46278;-59
2023/10/29 02:05:58;;;;;;;;;0.00;0.00;;;;;17.84;100.00;98714.44;2096728;28;46564;-57
2023/10/29 02:06:59;;;;;;;;;1.00;0.67;;;;;17.84;100.00;98706.38;2096630;28;46355;-59
2023/10/29 02:07:59;;;;;;;;;0.33;0.33;;;;;17.82;100.00;98706.53;2096481;28;46595;-59
2023/10/29 02:09:02;;;;;;;;;0.00;0.00;;;;;17.86;100.00;98707.09;2093840;28;46775;-57
2023/10/29 02:10:03;;;;;;;;;0.00;0.00;;;;;17.86;100.00;98704.44;2080300;28;46170;-59
2023/10/29 02:11:04;;;;;;;;;0.25;0.25;;;;;17.87;100.00;98715.03;2079488;28;47024;-62
2023/10/29 02:12:04;;;;;;;;;1.33;0.33;;;;;17.86;100.00;98702.59;2088711;28;46275;-63
2023/10/29 02:13:05;;;;;;;;;0.00;0.00;;;;;17.88;100.00;98718.56;2088263;28;46285;-59
2023/10/29 02:14:06;;;;;;;;;1.00;0.00;;;;;17.89;100.00;98714.88;2092365;28;47187;-59
2023/10/29 02:15:07;;;;;;;;;0.25;0.25;;;;;17.88;100.00;98715.88;2096573;28;45467;-60
2023/10/29 02:16:09;;;;;;;;;1.00;0.00;;;;;17.87;100.00;98715.03;2089582;28;46884;-57
2023/10/29 02:17:09;;;;;;;;;0.00;0.00;;;;;17.86;100.00;98731.25;2088127;28;46510;-57
2023/10/29 02:18:11;;;;;;;;;0.00;0.00;;;;;17.86;100.00;98736.63;2088230;28;46614;-59
2023/10/29 02:19:12;;;;;;;;;2.00;0.25;;;;;17.83;100.00;98735.06;2096371;28;46390;-58
2023/10/29 02:20:12;;;;;;;;;0.00;0.00;;;;;17.83;100.00;98739.56;2082915;28;45780;-59
2023/10/29 02:21:12;;;;;;;;;0.00;0.00;;;;;17.82;100.00;98732.50;2054437;28;46429;-58
2023/10/29 02:22:13;;;;;;;;;0.00;0.00;;;;;17.82;100.00;98730.66;2055178;28;46977;-57
2023/10/29 02:23:13;;;;;;;;;0.00;0.00;;;;;17.83;100.00;98735.06;2055236;28;46396;-57
2023/10/29 02:24:13;;;;;;;;;0.00;0.00;;;;;17.85;100.00;98745.66;2055043;28;46351;-57
2023/10/29 02:25:14;;;;;;;;;1.00;0.00;;;;;17.82;100.00;98714.56;2054984;28;46094;-59
2023/10/29 02:26:14;;;;;;;;;0.00;0.00;;;;;17.82;100.00;98738.72;2055255;28;45995;-60
2023/10/29 02:27:14;;;;;;;;;0.00;0.00;;;;;17.82;100.00;98729.81;2055250;28;46687;-55
2023/10/29 02:28:15;;;;;;;;;0.33;0.33;;;;;17.82;100.00;98736.03;2054828;28;46610;-57
2023/10/29 02:29:16;;;;;;;;;0.00;0.00;;;;;17.82;100.00;98729.81;2054723;28;45670;-60
2023/10/29 02:30:16;;;;;;;;;1.00;0.50;;;;;17.83;100.00;98726.16;2054482;28;46421;-57
2023/10/29 02:31:18;;;;;;;;;2.00;1.00;;;;;17.82;100.00;98727.97;2055885;28;46370;-58
2023/10/29 02:32:18;;;;;;;;;1.25;0.00;;;;;17.82;100.00;98736.03;2062572;28;45724;-56
2023/10/29 02:33:19;;;;;;;;;1.00;1.00;;;;;17.83;100.00;98735.06;2061877;28;46006;-58
2023/10/29 02:34:19;;;;;;;;;2.33;0.67;;;;;17.84;100.00;98738.59;2054213;28;46424;-58
2023/10/29 02:35:20;;;;;;;;;1.00;1.00;;;;;17.84;100.00;98738.59;2059656;28;46278;-56
2023/10/29 02:36:21;;;;;;;;;1.75;1.25;;;;;17.84;100.00;98731.38;2063298;28;46234;-59
2023/10/29 02:37:21;;;;;;;;;1.00;0.00;;;;;17.85;100.00;98735.78;2062143;28;46275;-56
2023/10/29 02:38:24;;;;;;;;;0.00;0.00;;;;;17.85;100.00;98741.13;2062701;28;46163;-57
2023/10/29 02:39:25;;;;;;;;;1.00;1.00;;;;;17.84;100.00;98735.91;2062959;28;46927;-56
2023/10/29 02:40:25;;;;;;;;;3.00;3.00;;;;;17.84;100.00;98749.31;2062354;28;46598;-59
2023/10/29 02:41:25;;;;;;;;;1.67;1.33;;;;;17.84;100.00;98750.16;2062670;28;46566;-54
2023/10/29 02:42:26;;;;;;;;;2.00;1.00;;;;;17.84;100.00;98760.06;2054858;28;46284;-56
2023/10/29 02:43:26;;;;;;;;;0.00;0.00;;;;;17.85;100.00;98764.44;2058993;28;46461;-58
2023/10/29 02:44:27;;;;;;;;;3.67;0.00;;;;;17.85;100.00;98776.03;2063012;28;46376;-59
2023/10/29 02:45:27;;;;;;;;;0.33;0.33;;;;;17.84;100.00;98773.47;2063164;28;46716;-61
2023/10/29 02:46:27;;;;;;;;;0.00;0.00;;;;;17.85;100.00;98769.81;2063176;28;46404;-54
2023/10/29 02:47:28;;;;;;;;;0.00;0.00;;;;;17.82;100.00;98776.28;2063326;28;46234;-58
2023/10/29 02:48:28;;;;;;;;;1.00;1.00;;;;;17.84;100.00;98781.50;2063138;28;46849;-57
2023/10/29 02:49:28;;;;;;;;;0.00;0.00;;;;;17.84;100.00;98773.47;2062758;28;46847;-56
2023/10/29 02:50:29;;;;;;;;;0.00;0.00;;;;;17.83;100.00;98787.88;2062651;28;46307;-58
2023/10/29 02:51:29;;;;;;;;;0.00;0.00;;;;;17.82;100.00;98780.78;2063115;28;46696;-59
2023/10/29 02:52:30;;;;;;;;;1.00;0.00;;;;;17.84;100.00;98784.19;2062786;28;46597;-51
2023/10/29 02:53:31;;;;;;;;;1.75;0.25;;;;;17.85;100.00;98786.75;2063325;28;46849;-58
2023/10/29 02:54:32;;;;;;;;;0.00;0.00;;;;;17.87;100.00;98783.94;2063000;28;46643;-52
2023/10/29 02:55:33;;;;;;;;;0.00;0.00;;;;;17.87;100.00;98784.78;2062250;28;46808;-58
2023/10/29 02:56:35;;;;;;;;;1.33;0.00;;;;;17.88;100.00;98794.53;2062518;28;47261;-59
2023/10/29 02:57:35;;;;;;;;;0.50;0.00;;;;;17.90;100.00;98797.09;2063046;28;46358;-59
2023/10/29 02:58:36;;;;;;;;;0.00;0.00;;;;;17.89;100.00;98784.66;2062802;28;46726;-59
2023/10/29 02:59:36;;;;;;;;;0.00;0.00;;;;;17.88;100.00;98782.97;2062952;28;46690;-58
2023/10/29 03:00:36;;;;;;;;;0.00;0.00;;;;;17.89;100.00;98792.72;2062879;28;46608;-56
2023/10/29 03:01:37;;;;;;;;;0.67;0.00;;;;;17.89;100.00;98792.72;2063135;28;46877;-58
2023/10/29 03:02:37;;;;;;;;;0.00;0.00;;;;;17.90;100.00;98799.78;2062969;28;46748;-58
2023/10/29 03:03:37;;;;;;;;;0.00;0.00;;;;;17.90;100.00;98791.72;2062796;28;46547;-56
2023/10/29 03:04:38;;;;;;;;;0.00;0.00;;;;;17.90;100.00;98792.59;2057482;28;46706;-59
2023/10/29 03:05:38;;;;;;;;;0.00;0.00;;;;;17.89;100.00;98788.19;2062883;28;46262;-58
2023/10/29 03:06:41;;;;;;;;;1.00;1.00;;;;;17.76;100.00;98792.00;2063228;28;46258;-56
2023/10/29 03:07:41;;;;;;;;;0.25;0.25;;;;;17.89;100.00;98798.06;2063038;28;46794;-57
2023/10/29 03:08:42;;;;;;;;;0.00;0.00;;;;;17.90;100.00;98795.25;2062292;28;46691;-59
2023/10/29 03:09:42;;;;;;;;;2.00;0.00;;;;;17.89;100.00;98800.75;2062576;28;46282;-56
2023/10/29 03:10:43;;;;;;;;;0.00;0.00;;;;;17.90;100.00;98799.78;2063230;28;46328;-57
2023/10/29 03:11:43;;;;;;;;;0.00;0.00;;;;;17.88;100.00;98810.66;2062969;28;46307;-54
2023/10/29 03:12:43;;;;;;;;;1.33;1.33;;;;;17.89;100.00;98809.66;2063178;28;46519;-57
2023/10/29 03:13:43;;;;;;;;;0.33;0.33;;;;;17.88;100.00;98812.47;2063042;28;46472;-57
2023/10/29 03:14:44;;;;;;;;;1.00;0.00;;;;;17.88;100.00;98807.97;2062822;28;46374;-58
2023/10/29 03:15:44;;;;;;;;;1.67;0.00;;;;;17.89;100.00;98812.34;2062985;28;46236;-58
2023/10/29 03:16:45;;;;;;;;;1.00;1.00;;;;;17.88;100.00;98799.06;2070455;28;46347;-58
2023/10/29 03:17:45;;;;;;;;;0.00;0.00;;;;;17.87;100.00;98806.25;2070287;28;46212;-56
2023/10/29 03:18:47;;;;;;;;;0.00;0.00;;;;;17.87;100.00;98792.00;2063031;28;46266;-54
2023/10/29 03:19:48;;;;;;;;;0.00;0.00;;;;;17.87;100.00;98794.69;2063014;28;46432;-57
2023/10/29 03:20:48;;;;;;;;;0.00;0.00;;;;;17.70;100.00;98789.84;2062745;28;46839;-59
2023/10/29 03:21:49;;;;;;;;;0.00;0.00;;;;;17.64;100.00;98793.84;2061202;28;45561;-59
2023/10/29 03:22:49;;;;;;;;;0.67;0.00;;;;;17.82;100.00;98786.16;2054070;28;46702;-57
2023/10/29 03:23:50;;;;;;;;;0.33;0.00;;;;;17.84;100.00;98792.25;2054381;28;45997;-59
2023/10/29 03:24:50;;;;;;;;;0.00;0.00;;;;;17.84;100.00;98781.50;2054473;28;46672;-58
2023/10/29 03:25:51;;;;;;;;;0.67;0.00;;;;;17.84;100.00;98789.56;2055095;28;46634;-56
2023/10/29 03:26:51;;;;;;;;;1.67;0.00;;;;;17.84;100.00;98776.16;2054697;28;46821;-59
2023/10/29 03:27:51;;;;;;;;;0.33;0.00;;;;;17.82;100.00;98778.97;2054828;28;46445;-58
2023/10/29 03:28:52;;;;;;;;;1.67;0.67;;;;;17.83;100.00;98769.09;2054857;28;46300;-59
2023/10/29 03:29:53;;;;;;;;;0.00;0.00;;;;;17.83;100.00;98777.13;2055008;28;46424;-60
2023/10/29 03:30:53;;;;;;;;;0.00;0.00;;;;;17.83;100.00;98790.53;2054627;28;46347;-59
2023/10/29 03:31:53;;;;;;;;;1.33;0.67;;;;;17.80;100.00;98785.44;2060170;28;46297;-55
2023/10/29 03:32:54;;;;;;;;;0.00;0.00;;;;;17.81;100.00;98787.16;2062868;28;46400;-52
2023/10/29 03:33:54;;;;;;;;;2.67;0.00;;;;;17.81;100.00;98784.47;2062916;28;45392;-56
2023/10/29 03:34:54;;;;;;;;;0.00;0.00;;;;;17.81;100.00;98793.38;2062721;28;46389;-53
2023/10/29 03:35:55;;;;;;;;;1.00;1.00;;;;;17.81;100.00;98801.41;2063002;28;46184;-56
2023/10/29 03:36:55;;;;;;;;;3.00;2.00;;;;;17.82;100.00;98802.25;2062899;28;46791;-57
2023/10/29 03:37:55;;;;;;;;;2.00;0.00;;;;;17.82;100.00;98802.25;2063107;28;46872;-59
2023/10/29 03:38:55;;;;;;;;;0.00;0.00;;;;;17.83;100.00;98814.69;2062817;28;46304;-57
2023/10/29 03:39:56;;;;;;;;;1.00;0.00;;;;;17.82;100.00;98803.13;2062579;28;46430;-55
2023/10/29 03:40:56;;;;;;;;;0.00;0.00;;;;;17.82;100.00;98796.91;2062837;28;45627;-58
2023/10/29 03:41:57;;;;;;;;;0.00;0.00;;;;;17.81;100.00;98805.94;2062882;28;46944;-58
2023/10/29 03:42:57;;;;;;;;;1.33;0.00;;;;;17.79;100.00;98808.75;2062434;28;46730;-59
2023/10/29 03:43:57;;;;;;;;;0.00;0.00;;;;;17.80;100.00;98817.63;2063255;28;45864;-59
2023/10/29 03:44:58;;;;;;;;;0.00;0.00;;;;;17.78;100.00;98817.75;2062923;28;46259;-58
2023/10/29 03:45:59;;;;;;;;;0.67;0.00;;;;;17.77;100.00;98820.53;2062860;28;46472;-58
2023/10/29 03:46:59;;;;;;;;;2.50;0.50;;;;;17.77;100.00;98823.22;2062941;28;46739;-59
2023/10/29 03:48:00;;;;;;;;;0.67;0.67;;;;;17.76;100.00;98819.69;2062864;28;46785;-60
2023/10/29 03:49:00;;;;;;;;;1.00;1.00;;;;;17.74;100.00;98827.03;2062207;28;45591;-58
2023/10/29 03:50:01;;;;;;;;;2.00;2.00;;;;;17.75;100.00;98823.34;2053437;28;46387;-55
2023/10/29 03:51:02;;;;;;;;;1.33;0.00;;;;;17.77;100.00;98828.59;2056450;28;46876;-56
2023/10/29 03:52:02;;;;;;;;;0.50;0.00;;;;;17.77;100.00;98833.97;2062709;28;46792;-59
2023/10/29 03:53:03;;;;;;;;;0.00;0.00;;;;;17.76;100.00;98835.78;2103760;28;46692;-57
2023/10/29 03:54:03;;;;;;;;;3.33;1.33;;;;;17.76;100.00;98840.31;2103783;28;46430;-56
2023/10/29 03:55:04;;;;;;;;;0.00;0.00;;;;;17.76;100.00;98837.63;2061953;28;45456;-54
2023/10/29 03:56:04;;;;;;;;;1.00;1.00;;;;;17.75;100.00;98838.59;2061630;28;46110;-58
2023/10/29 03:57:05;;;;;;;;;1.33;1.33;;;;;17.73;100.00;98845.94;2063344;28;46247;-57
2023/10/29 03:58:05;;;;;;;;;1.00;1.00;;;;;17.74;100.00;98850.31;2062566;28;46259;-58
2023/10/29 03:59:06;;;;;;;;;0.00;0.00;;;;;17.74;100.00;98861.03;2062760;28;47001;-58
2023/10/29 04:00:07;;;;;;;;;0.67;0.00;;;;;17.74;100.00;98844.94;2062680;28;46233;-58
2023/10/29 04:01:07;;;;;;;;;0.00;0.00;;;;;17.73;100.00;98838.72;2062588;28;46460;-57
2023/10/29 04:02:07;;;;;;;;;1.00;1.00;;;;;17.72;100.00;98828.97;2103144;28;46184;-57
2023/10/29 04:03:08;;;;;;;;;0.33;0.33;;;;;17.72;100.00;98826.31;2103824;28;46622;-56
2023/10/29 04:04:08;;;;;;;;;0.00;0.00;;;;;17.72;100.00;98828.13;2062997;28;45652;-58
2023/10/29 04:05:08;;;;;;;;;0.00;0.00;;;;;17.72;100.00;98828.13;2062569;28;46487;-59
2023/10/29 04:06:10;;;;;;;;;1.33;0.67;;;;;17.72;100.00;98825.44;2062530;28;46352;-57
2023/10/29 04:07:11;;;;;;;;;0.25;0.00;;;;;17.71;100.00;98824.59;2062946;28;46465;-60
2023/10/29 04:08:12;;;;;;;;;0.00;0.00;;;;;17.71;100.00;98838.00;2062653;28;45848;-57
2023/10/29 04:09:12;;;;;;;;;0.00;0.00;;;;;17.72;100.00;98850.44;2062165;28;46706;-57
2023/10/29 04:10:12;;;;;;;;;0.33;0.33;;;;;17.73;100.00;98851.28;2061812;28;45378;-55
2023/10/29 04:11:13;;;;;;;;;1.00;1.00;;;;;17.75;100.00;98852.03;2062186;28;45986;-58
2023/10/29 04:12:13;;;;;;;;;3.00;2.00;;;;;17.74;100.00;98840.44;2061943;28;46309;-58
2023/10/29 04:13:14;;;;;;;;;1.00;1.00;;;;;17.74;100.00;98847.63;2062877;28;46203;-59
2023/10/29 04:14:14;;;;;;;;;1.67;1.00;;;;;17.75;100.00;98842.13;2055979;28;46429;-59
2023/10/29 04:15:14;;;;;;;;;1.00;0.00;;;;;17.75;100.00;98846.66;2054255;28;45023;-56
2023/10/29 04:16:15;;;;;;;;;1.00;1.00;;;;;17.75;100.00;98842.13;2054551;28;47151;-59
2023/10/29 04:17:15;;;;;;;;;3.67;1.33;;;;;17.75;100.00;98839.47;2054212;28;46586;-58
2023/10/29 04:18:16;;;;;;;;;1.67;0.00;;;;;17.74;100.00;98826.16;2054905;28;46701;-55
2023/10/29 04:19:16;;;;;;;;;1.75;1.75;;;;;17.73;100.00;98830.69;2054833;28;46230;-58
2023/10/29 04:20:17;;;;;;;;;0.00;0.00;;;;;17.72;100.00;98842.41;2070311;28;46840;-59
2023/10/29 04:21:17;;;;;;;;;2.00;0.33;;;;;17.72;100.00;98847.75;2070305;28;45858;-58
2023/10/29 04:22:17;;;;;;;;;0.33;0.33;;;;;17.71;100.00;98854.09;2055002;28;45742;-56
2023/10/29 04:23:18;;;;;;;;;1.00;1.00;;;;;17.71;100.00;98839.84;2054627;28;46312;-55
2023/10/29 04:24:18;;;;;;;;;2.33;0.67;;;;;17.71;100.00;98845.22;2070062;28;46315;-58
2023/10/29 04:25:18;;;;;;;;;2.67;0.00;;;;;17.71;100.00;98853.25;2061925;28;46887;-56
2023/10/29 04:26:19;;;;;;;;;2.33;1.00;;;;;17.70;100.00;98851.56;2054525;28;46003;-57
2023/10/29 04:27:19;;;;;;;;;1.33;1.33;;;;;17.71;100.00;98854.09;2061677;28;45213;-58
2023/10/29 04:28:19;;;;;;;;;0.67;0.67;;;;;17.72;100.00;98869.22;2062547;28;46569;-58
2023/10/29 04:29:21;;;;;;;;;2.00;0.00;;;;;17.71;100.00;98872.03;2062721;28;45097;-57
2023/10/29 04:30:21;;;;;;;;;1.75;0.00;;;;;17.68;100.00;98857.00;2062120;28;46331;-54
2023/10/29 04:31:21;;;;;;;;;0.67;0.67;;;;;17.67;100.00;98855.31;2061196;28;46260;-60
2023/10/29 04:32:22;;;;;;;;;2.00;2.00;;;;;17.70;100.00;98854.22;2062737;28;46959;-59
2023/10/29 04:33:22;;;;;;;;;3.00;2.00;;;;;17.68;100.00;98859.69;2062336;28;45597;-57
2023/10/29 04:34:22;;;;;;;;;0.00;0.00;;;;;17.68;100.00;98848.09;2062274;28;46144;-56
2023/10/29 04:35:23;;;;;;;;;1.67;1.00;;;;;17.69;100.00;98848.00;2061865;28;46685;-58
2023/10/29 04:36:24;;;;;;;;;2.00;0.00;;;;;17.65;100.00;98855.41;2062479;28;46670;-60
2023/10/29 04:37:25;;;;;;;;;0.75;0.75;;;;;17.66;100.00;98856.28;2062242;28;46914;-59
2023/10/29 04:38:25;;;;;;;;;2.00;0.00;;;;;17.65;100.00;98854.56;2062885;28;45183;-59
2023/10/29 04:39:26;;;;;;;;;1.33;1.00;;;;;17.64;100.00;98858.22;2061569;28;46233;-59
2023/10/29 04:40:26;;;;;;;;;0.00;0.00;;;;;17.65;100.00;98850.03;2062051;28;46273;-58
2023/10/29 04:41:26;;;;;;;;;0.67;0.67;;;;;17.65;100.00;98855.41;2062505;28;46553;-55